createdAt,value
2019-02-24T00:01:30.880Z,102990.40
2019-02-24T00:03:58.519Z,102984.87
2019-02-24T00:06:25.377Z,102980.02
2019-02-24T00:08:52.071Z,102982.45
2019-02-24T00:11:18.696Z,102982.47
2019-02-24T00:13:45.448Z,102985.91
2019-02-24T00:16:12.098Z,102992.55
2019-02-24T00:18:38.750Z,102996.41
2019-02-24T00:21:05.376Z,102987.62
2019-02-24T00:23:32.048Z,102992.57
2019-02-24T00:25:58.810Z,102992.78
2019-02-24T00:28:25.488Z,102996.66
2019-02-24T00:30:52.322Z,103000.52
2019-02-24T00:33:18.976Z,103008.03
2019-02-24T00:35:45.601Z,103000.26
2019-02-24T00:38:12.405Z,102997.66
2019-02-24T00:40:39.031Z,102995.87
2019-02-24T00:43:05.669Z,102990.77
2019-02-24T00:45:32.459Z,102987.69
2019-02-24T00:47:59.091Z,102995.80
2019-02-24T00:50:25.773Z,102990.98
2019-02-24T00:52:52.575Z,102980.02
2019-02-24T00:55:19.216Z,102978.50
2019-02-24T00:57:45.827Z,102983.63
2019-02-24T01:00:12.640Z,102982.59
2019-02-24T01:02:39.302Z,102980.19
2019-02-24T01:05:06.310Z,102975.33
2019-02-24T01:07:32.940Z,102969.76
2019-02-24T01:09:59.579Z,102967.18
2019-02-24T01:12:26.208Z,102967.22
2019-02-24T01:14:52.869Z,102963.19
2019-02-24T01:17:19.504Z,102966.28
2019-02-24T01:19:46.504Z,102962.41
2019-02-24T01:22:13.331Z,102965.70
2019-02-24T01:24:40.281Z,102972.27
2019-02-24T01:27:06.997Z,102964.84
2019-02-24T01:29:33.974Z,102966.91
2019-02-24T01:32:00.872Z,102961.47
2019-02-24T01:34:27.928Z,102967.42
2019-02-24T01:36:54.621Z,102965.50
2019-02-24T01:39:21.259Z,102964.67
2019-02-24T01:41:49.812Z,102965.29
2019-02-24T01:44:16.462Z,102965.97
2019-02-24T01:46:43.225Z,102961.42
2019-02-24T01:49:09.844Z,102960.14
2019-02-24T01:51:36.481Z,102958.56
2019-02-24T01:54:03.116Z,102965.77
2019-02-24T01:56:29.852Z,102965.69
2019-02-24T01:58:56.512Z,102966.25
2019-02-24T02:01:23.309Z,102968.44
2019-02-24T02:03:49.950Z,102962.12
2019-02-24T02:06:16.606Z,102961.39
2019-02-24T02:08:43.347Z,102968.98
2019-02-24T02:11:10.079Z,102960.73
2019-02-24T02:13:36.918Z,102967.52
2019-02-24T02:16:03.563Z,102962.58
2019-02-24T02:18:30.248Z,102964.16
2019-02-24T02:20:57.483Z,102957.25
2019-02-24T02:23:24.109Z,102954.73
2019-02-24T02:25:50.819Z,102951.03
2019-02-24T02:28:17.463Z,102951.62
2019-02-24T02:30:44.102Z,102948.89
2019-02-24T02:33:10.731Z,102943.95
2019-02-24T02:35:37.392Z,102939.22
2019-02-24T02:38:04.102Z,102936.50
2019-02-24T02:40:30.747Z,102933.41
2019-02-24T02:42:57.503Z,102941.14
2019-02-24T02:45:24.153Z,102933.84
2019-02-24T02:47:50.802Z,102936.70
2019-02-24T02:50:17.485Z,102926.21
2019-02-24T02:52:44.108Z,102931.23
2019-02-24T02:55:10.755Z,102931.22
2019-02-24T02:57:37.437Z,102937.59
2019-02-24T03:00:08.575Z,102939.57
2019-02-24T03:02:35.207Z,102944.30
2019-02-24T03:05:03.657Z,102946.66
2019-02-24T03:07:40.524Z,102948.02
2019-02-24T03:10:07.205Z,102942.48
2019-02-24T03:12:33.832Z,102942.88
2019-02-24T03:15:00.490Z,102939.60
2019-02-24T03:17:27.569Z,102938.91
2019-02-24T03:19:54.255Z,102936.90
2019-02-24T03:22:20.885Z,102945.36
2019-02-24T03:24:47.562Z,102950.09
2019-02-24T03:27:14.211Z,102951.59
2019-02-24T03:29:40.852Z,102952.06
2019-02-24T03:32:07.531Z,102959.53
2019-02-24T03:34:34.163Z,102956.72
2019-02-24T03:37:00.827Z,102954.22
2019-02-24T03:39:27.496Z,102953.88
2019-02-24T03:41:54.139Z,102953.88
2019-02-24T03:44:20.763Z,102954.23
2019-02-24T03:46:47.434Z,102948.17
2019-02-24T03:49:14.087Z,102953.72
2019-02-24T03:51:40.736Z,102953.53
2019-02-24T03:54:07.369Z,102960.19
2019-02-24T03:56:33.996Z,102962.69
2019-02-24T03:59:00.640Z,102969.79
2019-02-24T04:01:27.281Z,102975.73
2019-02-24T04:03:53.909Z,102976.64
2019-02-24T04:06:20.527Z,102973.66
2019-02-24T04:08:47.214Z,102967.88
2019-02-24T04:11:13.844Z,102970.80
2019-02-24T04:13:40.499Z,102963.98
2019-02-24T04:16:07.174Z,102968.73
2019-02-24T04:18:33.783Z,102976.14
2019-02-24T04:21:00.444Z,102976.13
2019-02-24T04:23:27.074Z,102981.91
2019-02-24T04:25:53.718Z,102979.41
2019-02-24T04:28:20.336Z,102987.10
2019-02-24T04:30:46.979Z,102982.48
2019-02-24T04:33:13.621Z,102986.59
2019-02-24T04:35:40.241Z,102985.92
2019-02-24T04:38:06.887Z,102984.89
2019-02-24T04:40:33.523Z,102974.57
2019-02-24T04:43:00.143Z,102978.44
2019-02-24T04:45:26.783Z,102990.19
2019-02-24T04:47:53.431Z,102988.83
2019-02-24T04:50:20.056Z,102988.91
2019-02-24T04:52:46.698Z,102979.34
2019-02-24T04:55:13.318Z,102990.04
2019-02-24T04:57:39.958Z,102993.03
2019-02-24T05:00:06.852Z,102984.31
2019-02-24T05:02:33.512Z,102982.02
2019-02-24T05:05:00.395Z,102980.53
2019-02-24T05:07:27.147Z,102981.69
2019-02-24T05:09:53.777Z,102980.27
2019-02-24T05:12:20.402Z,102985.61
2019-02-24T05:14:47.133Z,102984.66
2019-02-24T05:17:13.772Z,102985.11
2019-02-24T05:19:40.538Z,102987.45
2019-02-24T05:22:07.238Z,102987.53
2019-02-24T05:24:33.873Z,102984.71
2019-02-24T05:27:00.565Z,102993.54
2019-02-24T05:29:27.232Z,102991.81
2019-02-24T05:31:53.972Z,102991.80
2019-02-24T05:34:20.635Z,102994.44
2019-02-24T05:36:47.483Z,102990.98
2019-02-24T05:39:14.197Z,102989.20
2019-02-24T05:41:40.929Z,102991.33
2019-02-24T05:44:07.567Z,102987.89
2019-02-24T05:46:34.195Z,102980.47
2019-02-24T05:49:00.954Z,102977.61
2019-02-24T05:51:27.669Z,102979.27
2019-02-24T05:53:54.292Z,102969.92
2019-02-24T05:56:20.962Z,102983.52
2019-02-24T05:58:47.605Z,102983.97
2019-02-24T06:01:14.265Z,102985.09
2019-02-24T06:03:40.859Z,102985.22
2019-02-24T06:06:07.544Z,102973.70
2019-02-24T06:08:34.195Z,102974.66
2019-02-24T06:11:00.810Z,102971.59
2019-02-24T06:13:27.572Z,102972.61
2019-02-24T06:15:54.188Z,102973.98
2019-02-24T06:18:20.820Z,102967.00
2019-02-24T06:20:47.803Z,102966.80
2019-02-24T06:23:14.449Z,102965.65
2019-02-24T06:25:41.098Z,102965.81
2019-02-24T06:28:08.028Z,102974.49
2019-02-24T06:30:34.638Z,102976.66
2019-02-24T06:33:01.396Z,102979.34
2019-02-24T06:35:28.152Z,102981.03
2019-02-24T06:37:54.800Z,102986.11
2019-02-24T06:40:21.407Z,102981.61
2019-02-24T06:42:48.074Z,102983.97
2019-02-24T06:45:14.703Z,102979.41
2019-02-24T06:47:41.351Z,102991.05
2019-02-24T06:50:08.041Z,102984.48
2019-02-24T06:52:34.662Z,102983.11
2019-02-24T06:55:01.298Z,102978.98
2019-02-24T06:57:28.085Z,102977.22
2019-02-24T06:59:54.875Z,102957.52
2019-02-24T07:02:21.647Z,102948.57
2019-02-24T07:04:48.527Z,102944.05
2019-02-24T07:07:15.148Z,102950.97
2019-02-24T07:09:41.757Z,102946.55
2019-02-24T07:12:08.435Z,102937.95
2019-02-24T07:14:35.055Z,102941.81
2019-02-24T07:17:01.685Z,102944.06
2019-02-24T07:19:28.317Z,102948.66
2019-02-24T07:21:55.044Z,102949.38
2019-02-24T07:24:21.693Z,102954.27
2019-02-24T07:26:48.465Z,102960.62
2019-02-24T07:29:15.088Z,102957.59
2019-02-24T07:31:41.724Z,102957.33
2019-02-24T07:34:08.418Z,102961.91
2019-02-24T07:36:35.075Z,102962.91
2019-02-24T07:39:01.705Z,102974.17
2019-02-24T07:41:28.334Z,102977.97
2019-02-24T07:43:54.966Z,102977.78
2019-02-24T07:46:21.575Z,102973.50
2019-02-24T07:48:48.220Z,102975.56
2019-02-24T07:51:14.835Z,102965.79
2019-02-24T07:53:41.620Z,102969.27
2019-02-24T07:56:08.571Z,102975.55
2019-02-24T07:58:35.205Z,102972.87
2019-02-24T08:01:01.824Z,102983.81
2019-02-24T08:03:28.478Z,102979.86
2019-02-24T08:05:55.085Z,102989.08
2019-02-24T08:08:21.725Z,102989.13
2019-02-24T08:10:48.351Z,102987.72
2019-02-24T08:13:14.965Z,102988.05
2019-02-24T08:15:41.574Z,102992.45
2019-02-24T08:18:08.208Z,102999.74
2019-02-24T08:20:34.819Z,102996.27
2019-02-24T08:23:01.425Z,103004.84
2019-02-24T08:25:28.131Z,103015.06
2019-02-24T08:27:55.608Z,103011.94
2019-02-24T08:30:22.401Z,103018.42
2019-02-24T08:32:49.178Z,103013.25
2019-02-24T08:35:15.750Z,103019.69
2019-02-24T08:37:42.356Z,103025.20
2019-02-24T08:40:09.156Z,103027.44
2019-02-24T08:42:35.771Z,103025.49
2019-02-24T08:45:02.642Z,103025.88
2019-02-24T08:47:29.272Z,103029.45
2019-02-24T08:49:55.925Z,103030.35
2019-02-24T08:52:22.597Z,103025.93
2019-02-24T08:54:49.292Z,103024.61
2019-02-24T08:57:15.924Z,103016.17
2019-02-24T08:59:42.551Z,103011.66
2019-02-24T09:02:09.254Z,103016.45
2019-02-24T09:04:35.880Z,103024.68
2019-02-24T09:07:02.482Z,103018.09
2019-02-24T09:09:29.109Z,103022.73
2019-02-24T09:11:55.724Z,103014.88
2019-02-24T09:14:22.345Z,103018.42
2019-02-24T09:16:49.084Z,103012.57
2019-02-24T09:19:15.710Z,103016.16
2019-02-24T09:21:42.329Z,103009.70
2019-02-24T09:24:08.968Z,103019.65
2019-02-24T09:26:35.589Z,103020.53
2019-02-24T09:29:02.226Z,103016.72
2019-02-24T09:31:28.965Z,103019.55
2019-02-24T09:33:55.626Z,103014.94
2019-02-24T09:36:22.378Z,103024.73
2019-02-24T09:38:49.040Z,103019.63
2019-02-24T09:41:15.659Z,103024.06
2019-02-24T09:43:42.385Z,103028.16
2019-02-24T09:46:09.091Z,103033.80
2019-02-24T09:48:35.713Z,103037.42
2019-02-24T09:51:02.401Z,103038.30
2019-02-24T09:53:29.083Z,103043.23
2019-02-24T09:55:55.703Z,103048.63
2019-02-24T09:58:22.303Z,103046.39
2019-02-24T10:00:49.048Z,103050.03
2019-02-24T10:03:15.680Z,103051.58
2019-02-24T10:05:42.443Z,103048.05
2019-02-24T10:08:09.083Z,103043.61
2019-02-24T10:10:35.714Z,103050.86
2019-02-24T10:13:02.445Z,103054.27
2019-02-24T10:15:29.138Z,103045.59
2019-02-24T10:17:55.727Z,103041.92
2019-02-24T10:20:22.481Z,103053.12
2019-02-24T10:22:49.104Z,103055.38
2019-02-24T10:25:15.734Z,103053.86
2019-02-24T10:27:42.372Z,103043.87
2019-02-24T10:30:09.056Z,103049.64
2019-02-24T10:32:35.706Z,103058.36
2019-02-24T10:35:02.343Z,103045.23
2019-02-24T10:37:28.989Z,103049.59
2019-02-24T10:39:55.608Z,103037.71
2019-02-24T10:42:22.279Z,103044.55
2019-02-24T10:44:48.923Z,103048.27
2019-02-24T10:47:15.563Z,103044.47
2019-02-24T10:49:42.199Z,103044.45
2019-02-24T10:52:08.909Z,103043.95
2019-02-24T10:54:35.522Z,103037.34
2019-02-24T10:57:02.507Z,103029.09
2019-02-24T10:59:29.144Z,103026.17
2019-02-24T11:01:55.913Z,103027.92
2019-02-24T11:04:22.544Z,103022.06
2019-02-24T11:06:49.373Z,103027.76
2019-02-24T11:09:15.995Z,103021.09
2019-02-24T11:11:42.635Z,103026.24
2019-02-24T11:14:09.333Z,103027.42
2019-02-24T11:16:35.947Z,103030.86
2019-02-24T11:19:02.587Z,103021.50
2019-02-24T11:21:29.303Z,103023.75
2019-02-24T11:23:55.914Z,103024.95
2019-02-24T11:26:22.535Z,103029.38
2019-02-24T11:28:49.173Z,103031.73
2019-02-24T11:31:15.794Z,103040.57
2019-02-24T11:33:42.406Z,103037.08
2019-02-24T11:36:09.055Z,103041.11
2019-02-24T11:38:35.683Z,103038.79
2019-02-24T11:41:02.316Z,103037.38
2019-02-24T11:43:28.958Z,103037.41
2019-02-24T11:45:55.677Z,103031.73
2019-02-24T11:51:03.039Z,103028.42
2019-02-24T11:53:29.934Z,103020.33
2019-02-24T11:55:56.680Z,103018.62
2019-02-24T11:58:23.314Z,103018.11
2019-02-24T12:00:50.021Z,103020.94
2019-02-24T12:03:16.708Z,103016.53
2019-02-24T12:05:43.322Z,103012.45
2019-02-24T12:08:09.969Z,103012.28
2019-02-24T12:10:36.603Z,103018.94
2019-02-24T12:13:03.240Z,103016.52
2019-02-24T12:15:29.908Z,103014.73
2019-02-24T12:17:56.535Z,103014.08
2019-02-24T12:20:23.152Z,103009.92
2019-02-24T12:22:49.787Z,103005.22
2019-02-24T12:25:16.400Z,103003.84
2019-02-24T12:27:43.257Z,103007.22
2019-02-24T12:30:09.905Z,103007.58
2019-02-24T12:32:36.546Z,103005.33
2019-02-24T12:35:03.355Z,103002.57
2019-02-24T12:37:30.043Z,102999.09
2019-02-24T12:39:56.793Z,102994.89
2019-02-24T12:42:23.435Z,102986.56
2019-02-24T12:44:50.120Z,102990.06
2019-02-24T12:47:16.854Z,102982.62
2019-02-24T12:49:43.481Z,102990.18
2019-02-24T12:52:10.221Z,102990.80
2019-02-24T12:54:36.839Z,102986.95
2019-02-24T12:57:03.478Z,102983.94
2019-02-24T12:59:30.111Z,102981.66
2019-02-24T13:02:05.306Z,102981.72
2019-02-24T13:04:25.323Z,102971.55
2019-02-24T13:06:52.091Z,102971.67
2019-02-24T13:09:19.641Z,102964.30
2019-02-24T13:11:46.520Z,102965.30
2019-02-24T13:14:13.368Z,102962.06
2019-02-24T13:16:39.988Z,102958.26
2019-02-24T13:19:06.716Z,102955.63
2019-02-24T13:21:33.401Z,102957.20
2019-02-24T13:24:00.019Z,102943.66
2019-02-24T13:26:26.622Z,102942.77
2019-02-24T13:28:53.448Z,102946.83
2019-02-24T13:31:20.055Z,102939.30
2019-02-24T13:33:46.696Z,102946.23
2019-02-24T13:36:13.584Z,102944.16
2019-02-24T13:38:40.213Z,102943.80
2019-02-24T13:41:06.841Z,102944.92
2019-02-24T13:43:33.571Z,102940.68
2019-02-24T13:46:00.188Z,102943.31
2019-02-24T13:48:26.927Z,102945.80
2019-02-24T13:50:53.605Z,102955.83
2019-02-24T13:53:20.260Z,102943.39
2019-02-24T13:55:46.883Z,102936.19
2019-02-24T13:58:13.640Z,102940.88
2019-02-24T14:00:40.276Z,102934.14
2019-02-24T14:03:07.027Z,102937.47
2019-02-24T14:05:33.676Z,102932.34
2019-02-24T14:08:00.328Z,102930.56
2019-02-24T14:10:26.947Z,102927.30
2019-02-24T14:12:53.614Z,102931.15
2019-02-24T14:15:20.260Z,102923.92
2019-02-24T14:17:46.894Z,102931.91
2019-02-24T14:20:13.540Z,102936.34
2019-02-24T14:22:40.206Z,102928.84
2019-02-24T14:25:07.181Z,102934.52
2019-02-24T14:27:34.042Z,102931.42
2019-02-24T14:30:00.706Z,102938.42
2019-02-24T14:32:33.008Z,102946.09
2019-02-24T14:34:55.942Z,102936.20
2019-02-24T14:37:22.648Z,102932.67
2019-02-24T14:39:49.269Z,102931.41
2019-02-24T14:42:15.921Z,102937.90
2019-02-24T14:44:42.552Z,102944.46
2019-02-24T14:47:09.213Z,102945.62
2019-02-24T14:49:35.887Z,102938.56
2019-02-24T14:52:02.549Z,102942.37
2019-02-24T14:54:29.252Z,102934.13
2019-02-24T14:56:55.887Z,102940.67
2019-02-24T14:59:22.542Z,102938.05
2019-02-24T15:01:49.177Z,102943.55
2019-02-24T15:04:15.833Z,102943.73
2019-02-24T15:06:42.460Z,102942.34
2019-02-24T15:09:09.169Z,102940.38
2019-02-24T15:11:35.798Z,102943.64
2019-02-24T15:14:02.532Z,102942.14
2019-02-24T15:16:29.148Z,102948.75
2019-02-24T15:18:55.790Z,102946.73
2019-02-24T15:21:22.410Z,102946.47
2019-02-24T15:23:49.131Z,102944.73
2019-02-24T15:26:15.784Z,102953.13
2019-02-24T15:28:42.466Z,102948.87
2019-02-24T15:31:09.126Z,102953.05
2019-02-24T15:33:35.877Z,102954.03
2019-02-24T15:36:02.783Z,102955.44
2019-02-24T15:38:29.398Z,102963.19
2019-02-24T15:40:56.245Z,102965.74
2019-02-24T15:43:22.899Z,102956.94
2019-02-24T15:45:49.568Z,102957.38
2019-02-24T15:48:16.226Z,102961.92
2019-02-24T15:50:42.868Z,102957.58
2019-02-24T15:53:09.679Z,102956.11
2019-02-24T15:55:36.324Z,102961.00
2019-02-24T15:58:02.971Z,102961.93
2019-02-24T16:00:29.621Z,102967.02
2019-02-24T16:03:01.652Z,102967.72
2019-02-24T16:05:24.809Z,102964.77
2019-02-24T16:07:51.463Z,102969.41
2019-02-24T16:10:18.142Z,102965.87
2019-02-24T16:12:44.988Z,102970.74
2019-02-24T16:15:12.533Z,102959.83
2019-02-24T16:17:39.216Z,102965.91
2019-02-24T16:20:08.784Z,102959.20
2019-02-24T16:22:35.448Z,102955.25
2019-02-24T16:25:02.111Z,102956.95
2019-02-24T16:27:28.764Z,102957.38
2019-02-24T16:29:55.804Z,102958.04
2019-02-24T16:32:22.468Z,102954.73
2019-02-24T16:34:49.397Z,102957.27
2019-02-24T16:37:16.024Z,102963.79
2019-02-24T16:39:42.665Z,102963.44
2019-02-24T16:42:09.296Z,102962.11
2019-02-24T16:44:35.924Z,102973.17
2019-02-24T16:47:02.571Z,102972.30
2019-02-24T16:49:29.200Z,102974.80
2019-02-24T16:51:55.827Z,102974.64
2019-02-24T16:54:22.591Z,102975.27
2019-02-24T16:56:49.222Z,102974.58
2019-02-24T16:59:15.936Z,102973.86
2019-02-24T17:01:42.621Z,102975.09
2019-02-24T17:04:09.243Z,102975.02
2019-02-24T17:06:35.879Z,102976.92
2019-02-24T17:09:03.399Z,102974.69
2019-02-24T17:11:30.039Z,102972.39
2019-02-24T17:13:56.656Z,102978.17
2019-02-24T17:16:23.295Z,102980.66
2019-02-24T17:18:49.910Z,102982.88
2019-02-24T17:21:16.531Z,102983.45
2019-02-24T17:23:49.700Z,102986.32
2019-02-24T17:26:11.912Z,102987.74
2019-02-24T17:28:38.539Z,102994.53
2019-02-24T17:31:07.006Z,102994.24
2019-02-24T17:33:33.714Z,103004.84
2019-02-24T17:36:00.369Z,103006.58
2019-02-24T17:38:27.001Z,103004.41
2019-02-24T17:40:53.683Z,103000.02
2019-02-24T17:43:20.286Z,103005.38
2019-02-24T17:45:47.023Z,103000.42
2019-02-24T17:48:13.648Z,103009.64
2019-02-24T17:50:40.288Z,103011.31
2019-02-24T17:53:06.971Z,103006.03
2019-02-24T17:55:33.591Z,103000.14
2019-02-24T17:58:00.257Z,102998.34
2019-02-24T18:00:29.551Z,103002.17
2019-02-24T18:02:56.298Z,103002.93
2019-02-24T18:05:22.966Z,103004.12
2019-02-24T18:07:49.754Z,103004.98
2019-02-24T18:10:16.434Z,103003.91
2019-02-24T18:12:43.039Z,103000.77
2019-02-24T18:15:10.200Z,103005.04
2019-02-24T18:17:36.803Z,103001.40
2019-02-24T18:20:03.679Z,102995.70
2019-02-24T18:22:30.345Z,102995.61
2019-02-24T18:25:03.216Z,102983.94
2019-02-24T18:28:47.360Z,102983.39
2019-02-24T18:31:13.630Z,102982.77
2019-02-24T18:35:36.862Z,102973.75
2019-02-24T18:38:03.676Z,102975.55
2019-02-24T18:40:30.312Z,102974.22
